Clyde, Utah
Current Conditions -  °F | °C
As of 4:54 PM on Wednesday 22 Oct 2014 (Local Time) from KPVU Reporting Station
Few Clouds Few Clouds  
Wind Chill: 61°   Ceiling: Unl
Heat Index: 61°   Visibility: 10mi
Dew Point: 30°   Wind: 3mph
Humidity: 31%   Direction: 250°WSW
Pressure: 30.16"   Gusts: NA
Location:  40.2724°N, 111.717°W
Report Text: KPVU 222254Z 25003KT 10SM FEW120 16/M01 A3016
Loading
Personal Weather Stations






























Interactive Weather Map
Tropical Storm Tracking
New forecast layout! Learn more

10-Day Weather Forecast

Advertisements
Track Severe Weather on mobile